createdAt,value
2019-04-22T00:01:28.639Z,15.80
2019-04-22T00:04:01.307Z,15.50
2019-04-22T00:06:50.028Z,15.80
2019-04-22T00:09:24.152Z,15.90
2019-04-22T00:11:52.873Z,15.90
2019-04-22T00:14:19.146Z,15.90
2019-04-22T00:16:58.509Z,15.90
2019-04-22T00:19:30.376Z,15.80
2019-04-22T00:22:03.320Z,15.80
2019-04-22T00:24:27.310Z,15.90
2019-04-22T00:26:59.477Z,15.80
2019-04-22T00:29:42.394Z,15.70
2019-04-22T00:32:22.629Z,15.80
2019-04-22T00:34:53.547Z,15.70
2019-04-22T00:37:28.525Z,15.80
2019-04-22T00:40:16.535Z,15.80
2019-04-22T00:42:28.802Z,15.40
2019-04-22T00:45:01.962Z,15.30
2019-04-22T00:50:15.848Z,15.50
2019-04-22T00:52:32.468Z,15.50
2019-04-22T00:55:10.248Z,15.50
2019-04-22T00:57:28.182Z,15.40
2019-04-22T01:00:01.461Z,15.30
2019-04-22T01:02:34.665Z,15.20
2019-04-22T01:05:05.500Z,15.30
2019-04-22T01:07:30.562Z,15.10
2019-04-22T01:12:34.638Z,15.00
2019-04-22T01:15:00.395Z,14.90
2019-04-22T01:17:34.336Z,14.80
2019-04-22T01:22:30.020Z,14.80
2019-04-22T01:24:56.380Z,14.50
2019-04-22T01:27:20.504Z,14.30
2019-04-22T01:29:48.985Z,14.50
2019-04-22T01:32:17.570Z,14.40
2019-04-22T01:34:55.260Z,14.50
2019-04-22T01:37:28.807Z,14.50
2019-04-22T01:40:06.077Z,14.70
2019-04-22T01:42:35.816Z,14.70
2019-04-22T01:45:05.635Z,14.80
2019-04-22T01:47:36.702Z,14.80
2019-04-22T01:50:10.078Z,14.60
2019-04-22T01:52:41.575Z,14.70
2019-04-22T01:57:37.613Z,14.70
2019-04-22T01:59:58.753Z,14.50
2019-04-22T02:02:35.393Z,14.70
2019-04-22T02:05:10.630Z,14.70
2019-04-22T02:07:37.099Z,14.60
2019-04-22T02:10:02.362Z,14.50
2019-04-22T02:12:36.857Z,14.60
2019-04-22T02:15:19.684Z,14.50
2019-04-22T02:17:53.459Z,14.50
2019-04-22T02:20:20.637Z,14.40
2019-04-22T02:23:43.940Z,14.30
2019-04-22T02:26:04.118Z,14.20
2019-04-22T02:36:18.730Z,14.00
2019-04-22T02:38:55.433Z,14.10
2019-04-22T02:41:16.063Z,14.10
2019-04-22T02:43:46.501Z,14.10
2019-04-22T02:54:02.585Z,14.20
2019-04-22T02:56:21.891Z,14.00
2019-04-22T03:01:08.782Z,13.90
2019-04-22T03:03:41.800Z,13.70
2019-04-22T03:06:15.445Z,13.70
2019-04-22T03:08:39.676Z,13.20
2019-04-22T03:11:07.622Z,13.20
2019-04-22T03:13:40.679Z,13.50
2019-04-22T03:16:08.333Z,13.40
2019-04-22T03:18:39.924Z,13.50
2019-04-22T03:26:11.950Z,13.30
2019-04-22T03:28:37.171Z,13.20
2019-04-22T03:39:38.047Z,13.10
2019-04-22T03:44:32.073Z,13.40
2019-04-22T03:49:48.014Z,13.50
2019-04-22T03:52:05.393Z,13.20
2019-04-22T03:59:39.123Z,13.30
2019-04-22T04:07:20.518Z,13.20
2019-04-22T04:09:39.083Z,13.00
2019-04-22T04:11:59.977Z,13.10
2019-04-22T04:14:38.117Z,13.20
2019-04-22T04:17:09.453Z,13.30
2019-04-22T04:21:57.803Z,13.30
2019-04-22T04:24:53.583Z,13.30
2019-04-22T04:27:07.454Z,12.90
2019-04-22T04:32:09.855Z,12.90
2019-04-22T04:34:43.748Z,12.90
2019-04-22T04:37:07.436Z,13.00
2019-04-22T04:39:36.440Z,13.10
2019-04-22T04:42:23.457Z,13.30
2019-04-22T04:45:08.140Z,13.40
2019-04-22T04:49:54.677Z,13.60
2019-04-22T04:52:39.713Z,13.80
2019-04-22T04:54:48.680Z,13.80
2019-04-22T04:57:14.592Z,13.70
2019-04-22T05:00:11.152Z,13.60
2019-04-22T05:04:56.178Z,14.10
2019-04-22T05:07:19.593Z,14.10
2019-04-22T05:09:36.014Z,14.50
2019-04-22T05:14:36.909Z,14.40
2019-04-22T05:17:16.471Z,14.70
2019-04-22T05:22:07.859Z,15.00
2019-04-22T05:24:35.050Z,14.90
2019-04-22T05:27:15.108Z,14.70
2019-04-22T05:29:46.498Z,14.80
2019-04-22T05:32:01.521Z,14.90
2019-04-22T05:34:35.538Z,14.70
2019-04-22T05:37:07.354Z,14.70
2019-04-22T05:39:38.079Z,14.90
2019-04-22T05:42:10.425Z,15.00
2019-04-22T05:44:38.981Z,14.90
2019-04-22T05:47:02.636Z,15.00
2019-04-22T05:49:31.283Z,15.10
2019-04-22T05:52:05.248Z,15.40
2019-04-22T05:54:35.071Z,15.00
2019-04-22T05:57:03.954Z,15.30
2019-04-22T05:59:44.547Z,16.10
2019-04-22T06:02:05.149Z,16.20
2019-04-22T06:04:29.468Z,16.00
2019-04-22T06:07:00.465Z,16.20
2019-04-22T06:09:36.733Z,16.20
2019-04-22T06:11:59.178Z,16.50
2019-04-22T06:14:37.065Z,16.20
2019-04-22T06:17:11.067Z,16.10
2019-04-22T06:19:37.995Z,16.60
2019-04-22T06:22:15.515Z,16.10
2019-04-22T06:24:43.679Z,16.70
2019-04-22T06:27:14.737Z,16.20
2019-04-22T06:29:36.565Z,17.20
2019-04-22T06:34:42.241Z,17.70
2019-04-22T06:37:14.390Z,17.30
2019-04-22T06:39:34.189Z,17.50
2019-04-22T06:44:45.717Z,17.30
2019-04-22T06:47:40.010Z,16.60
2019-04-22T06:52:14.184Z,17.60
2019-04-22T06:54:43.574Z,16.90
2019-04-22T06:57:08.806Z,17.80
2019-04-22T06:59:39.429Z,17.80
2019-04-22T07:02:12.359Z,17.90
2019-04-22T07:04:43.034Z,17.90
2019-04-22T07:07:08.395Z,17.70
2019-04-22T07:09:41.444Z,18.10
2019-04-22T07:12:12.092Z,17.50
2019-04-22T07:14:37.363Z,18.00
2019-04-22T07:17:07.077Z,18.10
2019-04-22T07:19:40.871Z,18.40
2019-04-22T07:22:13.489Z,19.10
2019-04-22T07:27:12.889Z,19.30
2019-04-22T07:29:38.935Z,18.80
2019-04-22T07:32:07.205Z,18.60
2019-04-22T07:34:42.644Z,18.30
2019-04-22T07:37:19.719Z,18.80
2019-04-22T07:39:44.010Z,18.80
2019-04-22T07:42:15.095Z,18.90
2019-04-22T07:44:48.098Z,19.50
2019-04-22T07:49:47.282Z,20.00
2019-04-22T07:52:09.899Z,20.40
2019-04-22T07:54:41.397Z,20.70
2019-04-22T07:59:40.405Z,20.50
2019-04-22T08:02:15.828Z,20.60
2019-04-22T08:04:54.285Z,20.50
2019-04-22T08:07:14.670Z,20.70
2019-04-22T08:09:47.212Z,20.80
2019-04-22T08:12:12.099Z,21.20
2019-04-22T08:14:40.898Z,20.60
2019-04-22T08:17:38.869Z,20.60
2019-04-22T08:19:41.936Z,21.70
2019-04-22T08:22:12.494Z,21.10
2019-04-22T08:24:51.255Z,21.10
2019-04-22T08:27:11.850Z,21.30
2019-04-22T08:29:52.249Z,21.60
2019-04-22T08:32:15.139Z,22.70
2019-04-22T08:34:44.793Z,21.80
2019-04-22T08:37:41.633Z,22.40
2019-04-22T08:39:40.569Z,22.20
2019-04-22T08:42:17.925Z,22.30
2019-04-22T08:44:56.761Z,22.00
2019-04-22T08:47:21.456Z,22.20
2019-04-22T08:49:50.209Z,22.20
2019-04-22T08:52:19.444Z,22.40
2019-04-22T08:54:44.546Z,22.00
2019-04-22T08:57:18.434Z,22.10
2019-04-22T08:59:43.215Z,22.60
2019-04-22T09:02:20.588Z,22.80
2019-04-22T09:04:45.049Z,22.90
2019-04-22T09:09:44.477Z,23.40
2019-04-22T09:12:20.042Z,23.00
2019-04-22T09:14:45.726Z,23.00
2019-04-22T09:17:17.435Z,22.30
2019-04-22T09:19:42.496Z,23.00
2019-04-22T09:27:24.675Z,22.80
2019-04-22T09:29:44.456Z,22.40
2019-04-22T09:34:47.042Z,23.40
2019-04-22T09:37:21.026Z,23.10
2019-04-22T09:39:50.817Z,23.80
2019-04-22T09:42:22.009Z,22.80
2019-04-22T09:44:47.858Z,23.60
2019-04-22T09:47:19.410Z,22.60
2019-04-22T09:52:16.115Z,23.50
2019-04-22T09:54:57.876Z,23.70
2019-04-22T09:57:21.118Z,23.50
2019-04-22T09:59:52.615Z,23.00
2019-04-22T10:04:55.472Z,24.00
2019-04-22T10:07:20.914Z,23.50
2019-04-22T10:12:29.815Z,23.30
2019-04-22T10:17:23.788Z,24.40
2019-04-22T10:19:53.789Z,24.50
2019-04-22T10:22:27.531Z,24.90
2019-04-22T10:24:52.025Z,24.60
2019-04-22T10:27:21.055Z,24.50
2019-04-22T10:30:04.373Z,24.50
2019-04-22T10:32:17.570Z,24.60
2019-04-22T10:34:44.474Z,25.70
2019-04-22T10:37:11.818Z,25.10
2019-04-22T10:39:50.590Z,25.40
2019-04-22T10:42:11.410Z,25.00
2019-04-22T10:44:39.818Z,25.10
2019-04-22T10:47:08.011Z,26.30
2019-04-22T10:49:36.347Z,26.90
2019-04-22T10:52:04.836Z,25.50
2019-04-22T10:54:33.691Z,26.00
2019-04-22T10:57:03.239Z,25.30
2019-04-22T10:59:32.306Z,25.40
2019-04-22T11:02:01.754Z,26.20
2019-04-22T11:04:30.220Z,26.10
2019-04-22T11:07:03.842Z,25.40
2019-04-22T11:09:29.052Z,25.10
2019-04-22T11:12:04.418Z,25.20
2019-04-22T11:14:28.678Z,26.00
2019-04-22T11:16:58.842Z,25.60
2019-04-22T11:19:27.738Z,25.40
2019-04-22T11:22:03.751Z,26.60
2019-04-22T11:24:26.681Z,25.00
2019-04-22T11:26:57.031Z,25.80
2019-04-22T11:29:25.589Z,26.10
2019-04-22T11:31:54.706Z,26.60
2019-04-22T11:34:24.915Z,26.00
2019-04-22T11:36:56.823Z,26.00
2019-04-22T11:39:26.018Z,25.90
2019-04-22T11:41:55.987Z,25.70
2019-04-22T11:44:25.404Z,25.80
2019-04-22T11:46:54.039Z,25.90
2019-04-22T11:49:22.067Z,26.60
2019-04-22T11:51:50.066Z,26.00
2019-04-22T11:54:18.920Z,26.10
2019-04-22T11:56:47.302Z,26.60
2019-04-22T11:59:15.874Z,27.20
2019-04-22T12:01:46.835Z,27.00
2019-04-22T12:04:16.030Z,26.60
2019-04-22T12:06:45.847Z,26.10
2019-04-22T12:09:17.575Z,27.40
2019-04-22T12:11:46.886Z,26.20
2019-04-22T12:14:15.928Z,27.00
2019-04-22T12:16:45.440Z,26.90
2019-04-22T12:19:15.688Z,26.50
2019-04-22T12:21:44.767Z,26.90
2019-04-22T12:24:13.268Z,27.50
2019-04-22T12:26:42.377Z,26.70
2019-04-22T12:29:11.074Z,26.70
2019-04-22T12:31:39.886Z,27.40
2019-04-22T12:34:08.103Z,26.90
2019-04-22T12:36:36.375Z,26.60
2019-04-22T12:39:07.686Z,27.00
2019-04-22T12:41:38.245Z,26.40
2019-04-22T12:44:07.510Z,26.30
2019-04-22T12:46:38.418Z,26.40
2019-04-22T12:49:07.874Z,26.20
2019-04-22T12:51:36.749Z,26.70
2019-04-22T12:54:05.060Z,26.30
2019-04-22T12:56:35.433Z,26.70
2019-04-22T12:59:05.573Z,26.90
2019-04-22T13:01:35.109Z,26.90
2019-04-22T13:04:08.972Z,26.30
2019-04-22T13:06:33.423Z,26.30
2019-04-22T13:09:02.189Z,26.90
2019-04-22T13:11:36.111Z,27.20
2019-04-22T13:14:03.054Z,27.10
2019-04-22T13:16:33.160Z,27.70
2019-04-22T13:19:06.928Z,26.90
2019-04-22T13:21:33.089Z,28.10
2019-04-22T13:24:02.524Z,27.20
2019-04-22T13:26:31.999Z,27.40
2019-04-22T13:29:01.055Z,27.70
2019-04-22T13:31:29.158Z,27.00
2019-04-22T13:34:00.191Z,26.70
2019-04-22T13:36:29.607Z,27.10
2019-04-22T13:38:58.745Z,27.10
2019-04-22T13:43:58.211Z,27.70
2019-04-22T13:46:31.252Z,27.60
2019-04-22T13:49:27.044Z,27.10
2019-04-22T13:54:12.669Z,27.10
2019-04-22T13:56:49.165Z,28.80
2019-04-22T13:59:09.155Z,27.10
2019-04-22T14:01:46.414Z,27.30
2019-04-22T14:04:28.539Z,28.20
2019-04-22T14:06:58.749Z,28.20
2019-04-22T14:09:28.326Z,28.00
2019-04-22T14:12:05.214Z,28.60
2019-04-22T14:14:30.199Z,28.80
2019-04-22T14:16:58.854Z,30.10
2019-04-22T14:19:27.849Z,29.60
2019-04-22T14:21:55.979Z,29.00
2019-04-22T14:24:24.008Z,30.00
2019-04-22T14:27:10.047Z,30.90
2019-04-22T14:29:22.175Z,32.30
2019-04-22T14:32:04.221Z,29.50
2019-04-22T14:34:20.774Z,29.50
2019-04-22T14:36:51.105Z,28.80
2019-04-22T14:39:19.844Z,27.40
2019-04-22T14:42:10.918Z,28.50
2019-04-22T14:47:15.661Z,28.30
2019-04-22T14:49:42.143Z,27.60
2019-04-22T14:52:13.197Z,27.50
2019-04-22T14:54:34.074Z,28.00
2019-04-22T14:56:48.512Z,28.00
2019-04-22T14:59:16.836Z,27.40
2019-04-22T15:01:45.643Z,27.20
2019-04-22T15:04:15.114Z,26.90
2019-04-22T15:06:46.377Z,26.40
2019-04-22T15:09:14.410Z,26.90
2019-04-22T15:11:55.786Z,27.20
2019-04-22T15:14:17.271Z,26.90
2019-04-22T15:17:11.134Z,26.70
2019-04-22T15:19:45.459Z,27.00
2019-04-22T15:22:14.577Z,27.10
2019-04-22T15:24:45.046Z,26.60
2019-04-22T15:27:14.154Z,26.70
2019-04-22T15:29:43.218Z,26.40
2019-04-22T15:32:11.766Z,26.50
2019-04-22T15:34:41.454Z,26.60
2019-04-22T15:37:09.723Z,26.30
2019-04-22T15:39:39.435Z,26.40
2019-04-22T15:42:14.476Z,26.20
2019-04-22T15:44:37.911Z,26.10
2019-04-22T15:47:08.996Z,26.10
2019-04-22T15:49:38.139Z,26.50
2019-04-22T15:52:08.114Z,26.20
2019-04-22T15:54:37.511Z,27.30
2019-04-22T15:57:06.674Z,27.00
2019-04-22T15:59:50.517Z,27.70
2019-04-22T16:02:06.641Z,27.60
2019-04-22T16:04:34.838Z,26.90
2019-04-22T16:07:03.366Z,26.90
2019-04-22T16:09:31.509Z,26.90
2019-04-22T16:12:11.588Z,27.80
2019-04-22T16:14:39.619Z,27.10
2019-04-22T16:17:02.573Z,26.80
2019-04-22T16:19:32.929Z,27.00
2019-04-22T16:22:06.927Z,28.20
2019-04-22T16:24:50.219Z,27.80
2019-04-22T16:27:22.699Z,27.90
2019-04-22T16:29:51.594Z,27.30
2019-04-22T16:32:21.183Z,27.00
2019-04-22T16:34:49.933Z,26.80
2019-04-22T16:37:19.043Z,26.80
2019-04-22T16:39:50.278Z,26.30
2019-04-22T16:42:27.769Z,26.70
2019-04-22T16:44:49.310Z,26.90
2019-04-22T16:47:19.565Z,26.70
2019-04-22T16:49:47.907Z,26.00
2019-04-22T16:52:16.244Z,26.20
2019-04-22T16:54:46.375Z,26.20
2019-04-22T16:57:15.811Z,26.10
2019-04-22T16:59:44.817Z,26.50
2019-04-22T17:02:32.895Z,26.00
2019-04-22T17:05:13.855Z,25.90
2019-04-22T17:07:42.459Z,25.70
2019-04-22T17:10:13.737Z,25.80
2019-04-22T17:12:50.793Z,25.50
2019-04-22T17:15:16.031Z,25.60
2019-04-22T17:17:43.398Z,25.30
2019-04-22T17:20:13.324Z,25.20
2019-04-22T17:22:41.883Z,25.40
2019-04-22T17:25:10.132Z,25.70
2019-04-22T17:27:39.270Z,25.40
2019-04-22T17:30:08.547Z,25.70
2019-04-22T17:32:37.767Z,25.60
2019-04-22T17:35:08.348Z,25.60
2019-04-22T17:37:39.646Z,25.10
2019-04-22T17:40:24.346Z,25.40
2019-04-22T17:42:57.827Z,25.30
2019-04-22T17:45:47.793Z,25.40
2019-04-22T17:48:35.415Z,25.20
2019-04-22T17:51:10.518Z,25.00
2019-04-22T17:53:41.699Z,25.20
2019-04-22T17:56:08.618Z,25.40
2019-04-22T17:58:38.528Z,25.40
2019-04-22T18:01:11.905Z,24.90
2019-04-22T18:03:25.795Z,24.60
2019-04-22T18:05:55.468Z,25.00
2019-04-22T18:08:40.749Z,24.80
2019-04-22T18:11:21.756Z,24.30
2019-04-22T18:13:39.225Z,23.80
2019-04-22T18:16:09.858Z,23.10
2019-04-22T18:18:41.708Z,22.90
2019-04-22T18:21:06.336Z,22.90
2019-04-22T18:23:24.862Z,22.30
2019-04-22T18:26:09.831Z,22.40
2019-04-22T18:28:46.435Z,22.40
2019-04-22T18:31:06.674Z,22.20
2019-04-22T18:33:36.988Z,21.90
2019-04-22T18:36:12.608Z,22.10
2019-04-22T18:38:46.016Z,21.60
2019-04-22T18:41:05.078Z,21.80
2019-04-22T18:43:42.461Z,21.70
2019-04-22T18:46:15.678Z,21.70
2019-04-22T18:48:37.661Z,21.40
2019-04-22T18:51:27.697Z,21.60
2019-04-22T18:54:02.882Z,21.60
2019-04-22T18:56:34.289Z,21.50
2019-04-22T18:58:53.764Z,21.10
2019-04-22T19:01:17.644Z,21.00
2019-04-22T19:03:56.174Z,21.30
2019-04-22T19:06:46.114Z,21.40
2019-04-22T19:09:11.949Z,20.60
2019-04-22T19:11:46.234Z,21.20
2019-04-22T19:14:10.898Z,20.30
2019-04-22T19:16:39.813Z,20.30
2019-04-22T19:19:24.535Z,20.40
2019-04-22T19:21:38.019Z,20.40
2019-04-22T19:24:05.982Z,20.20
2019-04-22T19:26:50.532Z,20.50
2019-04-22T19:29:06.912Z,20.40
2019-04-22T19:31:41.026Z,20.40
2019-04-22T19:34:14.724Z,20.20
2019-04-22T19:36:43.637Z,20.20
2019-04-22T19:39:10.498Z,20.10
2019-04-22T19:41:44.180Z,20.30
2019-04-22T19:44:17.679Z,20.40
2019-04-22T19:46:42.449Z,20.40
2019-04-22T19:49:22.098Z,20.40
2019-04-22T19:51:53.917Z,20.10
2019-04-22T19:54:13.949Z,20.40
2019-04-22T19:56:38.769Z,20.30
2019-04-22T19:59:14.997Z,20.20
2019-04-22T20:02:10.945Z,20.00
2019-04-22T20:05:25.885Z,19.60
2019-04-22T20:07:41.643Z,19.80
2019-04-22T20:10:20.706Z,20.10
2019-04-22T20:12:50.051Z,19.70
2019-04-22T20:15:20.012Z,19.90
2019-04-22T20:18:20.848Z,20.00
2019-04-22T20:20:29.243Z,19.80
2019-04-22T20:22:52.455Z,19.80
2019-04-22T20:25:14.608Z,19.70
2019-04-22T20:28:00.040Z,19.90
2019-04-22T20:30:29.552Z,19.80
2019-04-22T20:32:56.268Z,19.60
2019-04-22T20:35:32.983Z,19.70
2019-04-22T20:37:56.781Z,19.30
2019-04-22T20:40:32.006Z,19.10
2019-04-22T20:43:26.819Z,19.30
2019-04-22T20:45:36.358Z,18.90
2019-04-22T20:47:54.943Z,19.10
2019-04-22T20:50:35.879Z,19.00
2019-04-22T20:53:07.155Z,18.80
2019-04-22T20:55:29.607Z,18.80
2019-04-22T20:58:05.143Z,18.70
2019-04-22T21:00:30.926Z,18.60
2019-04-22T21:02:58.919Z,18.10
2019-04-22T21:05:31.425Z,18.20
2019-04-22T21:08:11.321Z,18.20
2019-04-22T21:10:31.421Z,18.00
2019-04-22T21:13:00.199Z,17.50
2019-04-22T21:15:46.877Z,17.70
2019-04-22T21:18:05.521Z,17.30
2019-04-22T21:20:43.143Z,18.10
2019-04-22T21:23:13.956Z,17.90
2019-04-22T21:25:34.721Z,17.90
2019-04-22T21:28:16.091Z,17.90
2019-04-22T21:30:45.704Z,17.70
2019-04-22T21:33:10.565Z,17.40
2019-04-22T21:38:15.172Z,17.00
2019-04-22T21:40:44.151Z,16.80
2019-04-22T21:43:18.461Z,16.60
2019-04-22T21:45:43.684Z,16.80
2019-04-22T21:48:26.299Z,16.80
2019-04-22T21:53:22.763Z,16.90
2019-04-22T21:55:50.756Z,16.40
2019-04-22T21:58:27.759Z,16.70
2019-04-22T22:01:15.122Z,16.50
2019-04-22T22:03:44.293Z,16.40
2019-04-22T22:06:05.991Z,16.50
2019-04-22T22:08:49.015Z,16.60
2019-04-22T22:11:14.206Z,16.90
2019-04-22T22:13:45.592Z,16.80
2019-04-22T22:16:10.070Z,17.10
2019-04-22T22:18:35.496Z,16.60
2019-04-22T22:21:33.421Z,17.00
2019-04-22T22:23:43.708Z,16.70
2019-04-22T22:26:09.392Z,16.90
2019-04-22T22:31:26.616Z,16.50
2019-04-22T22:33:49.856Z,16.40
2019-04-22T22:36:12.005Z,16.30
2019-04-22T22:38:43.734Z,16.30
2019-04-22T22:40:56.068Z,16.60
2019-04-22T22:43:32.011Z,16.30
2019-04-22T22:46:09.511Z,16.40
2019-04-22T22:48:49.742Z,16.60
2019-04-22T22:51:23.194Z,16.70
2019-04-22T22:53:47.955Z,16.50
2019-04-22T22:56:17.086Z,16.50
2019-04-22T22:58:45.356Z,16.40
2019-04-22T23:01:09.874Z,16.70
2019-04-22T23:03:51.038Z,16.40
2019-04-22T23:06:22.703Z,16.40
2019-04-22T23:08:53.836Z,16.40
2019-04-22T23:11:34.084Z,16.30
2019-04-22T23:13:54.220Z,16.60
2019-04-22T23:16:12.726Z,16.70
2019-04-22T23:18:31.931Z,16.70
2019-04-22T23:21:01.391Z,16.50
2019-04-22T23:23:51.314Z,16.20
2019-04-22T23:26:51.974Z,16.30
2019-04-22T23:29:10.436Z,16.00
2019-04-22T23:31:46.892Z,15.80
2019-04-22T23:34:22.363Z,16.00
2019-04-22T23:37:10.369Z,16.00
2019-04-22T23:39:58.438Z,16.00
2019-04-22T23:42:21.920Z,15.40
2019-04-22T23:44:56.278Z,15.80
2019-04-22T23:47:23.840Z,16.00
2019-04-22T23:49:56.120Z,15.80
2019-04-22T23:52:28.996Z,15.90
2019-04-22T23:55:03.249Z,15.80
2019-04-22T23:57:35.424Z,15.80
